AAL4352 KIND-KDCA
Flight info
| Callsign | AAL4352 |
|---|---|
| Flight time | 1h 6m |
| Altitude | 37000 |
| Route | MAREO5 BDOCK APE J30 BUCKO FRDMM6 |
| Aircraft | B738/M-SDE2E3FGHIRWXY/LB1 |
Departure
| Time | 2026-05-04 19:19 |
|---|---|
| Airport | Indianapolis International Airport (KIND) |
Arrival
| Time | 2026-05-04 20:26 |
|---|---|
| Airport | Ronald Reagan Washington National Airport (KDCA) |
| Time | Latitude | Longitude | Altitude | Speed | Heading |
|---|---|---|---|---|---|
| 2026-05-04 18:58 | 39.71723 | -86.29671 | 785 ft | 0 kts | 292° |
| 2026-05-04 19:07 | 39.71719 | -86.29659 | 785 ft | 2 kts | 292° |
| 2026-05-04 19:08 | 39.71713 | -86.29640 | 823 ft | 2 kts | 292° |
| 2026-05-04 19:08 | 39.71707 | -86.29620 | 786 ft | 2 kts | 297° |
| 2026-05-04 19:08 | 39.71695 | -86.29609 | 786 ft | 2 kts | 22° |
| 2026-05-04 19:08 | 39.71686 | -86.29615 | 786 ft | 2 kts | 54° |
| 2026-05-04 19:09 | 39.71694 | -86.29599 | 786 ft | 2 kts | 57° |
| 2026-05-04 19:09 | 39.71703 | -86.29584 | 786 ft | 1 kts | 44° |
| 2026-05-04 19:12 | 39.71750 | -86.29530 | 786 ft | 9 kts | 40° |
| 2026-05-04 19:12 | 39.71796 | -86.29482 | 787 ft | 8 kts | 39° |
| 2026-05-04 19:13 | 39.71837 | -86.29431 | 787 ft | 8 kts | 60° |
| 2026-05-04 19:13 | 39.71842 | -86.29359 | 788 ft | 8 kts | 86° |
| 2026-05-04 19:13 | 39.71870 | -86.29302 | 789 ft | 8 kts | 46° |
| 2026-05-04 19:13 | 39.71915 | -86.29246 | 789 ft | 13 kts | 44° |
| 2026-05-04 19:14 | 39.72007 | -86.29129 | 790 ft | 20 kts | 44° |
| 2026-05-04 19:14 | 39.72105 | -86.29004 | 794 ft | 19 kts | 44° |
| 2026-05-04 19:14 | 39.72200 | -86.28883 | 798 ft | 19 kts | 45° |
| 2026-05-04 19:14 | 39.72279 | -86.28751 | 799 ft | 18 kts | 62° |
| 2026-05-04 19:15 | 39.72353 | -86.28621 | 800 ft | 18 kts | 44° |
| 2026-05-04 19:15 | 39.72419 | -86.28537 | 801 ft | 0 kts | 45° |
| 2026-05-04 19:15 | 39.72420 | -86.28535 | 801 ft | 1 kts | 50° |
| 2026-05-04 19:15 | 39.72434 | -86.28502 | 801 ft | 3 kts | 39° |
| 2026-05-04 19:16 | 39.72444 | -86.28508 | 802 ft | 1 kts | 299° |
| 2026-05-04 19:16 | 39.72436 | -86.28521 | 802 ft | 4 kts | 230° |
| 2026-05-04 19:16 | 39.72434 | -86.28581 | 800 ft | 10 kts | 298° |
| 2026-05-04 19:16 | 39.72474 | -86.28667 | 800 ft | 14 kts | 302° |
| 2026-05-04 19:17 | 39.72531 | -86.28787 | 798 ft | 16 kts | 302° |
| 2026-05-04 19:17 | 39.72590 | -86.28909 | 796 ft | 16 kts | 302° |
| 2026-05-04 19:17 | 39.72648 | -86.29027 | 793 ft | 15 kts | 301° |
| 2026-05-04 19:17 | 39.72703 | -86.29138 | 791 ft | 14 kts | 305° |
| 2026-05-04 19:18 | 39.72769 | -86.29231 | 790 ft | 14 kts | 315° |
| 2026-05-04 19:18 | 39.72816 | -86.29292 | 789 ft | 7 kts | 307° |
| 2026-05-04 19:18 | 39.72801 | -86.29334 | 788 ft | 8 kts | 223° |
| 2026-05-04 19:18 | 39.72731 | -86.29423 | 786 ft | 29 kts | 224° |
| 2026-05-04 19:19 | 39.72403 | -86.29839 | 779 ft | 101 kts | 224° |
| 2026-05-04 19:19 | 39.71765 | -86.30663 | 867 ft | 149 kts | 223° |
| 2026-05-04 19:19 | 39.71006 | -86.31618 | 1552 ft | 153 kts | 224° |
| 2026-05-04 19:19 | 39.70239 | -86.32653 | 2140 ft | 174 kts | 225° |
| 2026-05-04 19:20 | 39.69315 | -86.33839 | 2550 ft | 192 kts | 217° |
| 2026-05-04 19:20 | 39.68150 | -86.34705 | 3299 ft | 192 kts | 211° |
| 2026-05-04 19:20 | 39.66929 | -86.35483 | 4063 ft | 199 kts | 211° |
| 2026-05-04 19:20 | 39.65654 | -86.36237 | 4875 ft | 201 kts | 210° |
| 2026-05-04 19:21 | 39.64370 | -86.36963 | 5686 ft | 203 kts | 210° |
| 2026-05-04 19:21 | 39.62920 | -86.37267 | 6320 ft | 232 kts | 179° |
| 2026-05-04 19:21 | 39.61316 | -86.36283 | 6579 ft | 279 kts | 147° |
| 2026-05-04 19:21 | 39.60022 | -86.34286 | 7218 ft | 302 kts | 124° |
| 2026-05-04 19:22 | 39.59386 | -86.31629 | 8015 ft | 318 kts | 97° |
| 2026-05-04 19:22 | 39.59622 | -86.28756 | 8855 ft | 325 kts | 76° |
| 2026-05-04 19:22 | 39.60310 | -86.25936 | 9637 ft | 331 kts | 71° |
| 2026-05-04 19:22 | 39.61130 | -86.23099 | 10290 ft | 343 kts | 69° |
| 2026-05-04 19:23 | 39.62022 | -86.20114 | 10489 ft | 368 kts | 69° |
| 2026-05-04 19:23 | 39.62973 | -86.16913 | 10706 ft | 391 kts | 69° |
| 2026-05-04 19:23 | 39.63947 | -86.13566 | 11254 ft | 401 kts | 69° |
| 2026-05-04 19:23 | 39.64922 | -86.10160 | 12002 ft | 404 kts | 69° |
| 2026-05-04 19:24 | 39.65893 | -86.06718 | 12763 ft | 407 kts | 69° |
| 2026-05-04 19:24 | 39.66861 | -86.03252 | 13527 ft | 410 kts | 68° |
| 2026-05-04 19:24 | 39.67834 | -85.99753 | 14114 ft | 416 kts | 68° |
| 2026-05-04 19:24 | 39.68813 | -85.96216 | 14783 ft | 417 kts | 68° |
| 2026-05-04 19:25 | 39.69793 | -85.92666 | 15516 ft | 417 kts | 68° |
| 2026-05-04 19:25 | 39.70772 | -85.89117 | 16148 ft | 420 kts | 68° |
| 2026-05-04 19:25 | 39.71759 | -85.85534 | 16778 ft | 423 kts | 68° |
| 2026-05-04 19:25 | 39.72752 | -85.81924 | 17439 ft | 426 kts | 68° |
| 2026-05-04 19:26 | 39.73752 | -85.78288 | 18129 ft | 429 kts | 68° |
| 2026-05-04 19:26 | 39.74756 | -85.74630 | 18691 ft | 431 kts | 68° |
| 2026-05-04 19:26 | 39.75765 | -85.70947 | 19248 ft | 435 kts | 68° |
| 2026-05-04 19:26 | 39.76785 | -85.67222 | 19786 ft | 439 kts | 68° |
| 2026-05-04 19:27 | 39.77810 | -85.63469 | 20329 ft | 443 kts | 68° |
| 2026-05-04 19:27 | 39.78842 | -85.59689 | 20881 ft | 446 kts | 68° |
| 2026-05-04 19:27 | 39.79882 | -85.55872 | 21391 ft | 449 kts | 68° |
| 2026-05-04 19:27 | 39.80925 | -85.52035 | 21905 ft | 452 kts | 68° |
| 2026-05-04 19:28 | 39.81975 | -85.48170 | 22413 ft | 455 kts | 68° |
| 2026-05-04 19:28 | 39.83032 | -85.44272 | 22917 ft | 458 kts | 68° |
| 2026-05-04 19:28 | 39.84093 | -85.40352 | 23388 ft | 461 kts | 68° |
| 2026-05-04 19:28 | 39.85159 | -85.36411 | 23796 ft | 464 kts | 68° |
| 2026-05-04 19:29 | 39.86232 | -85.32437 | 24192 ft | 466 kts | 68° |
| 2026-05-04 19:29 | 39.87308 | -85.28444 | 24593 ft | 469 kts | 69° |
| 2026-05-04 19:29 | 39.88236 | -85.24367 | 24965 ft | 473 kts | 76° |
| 2026-05-04 19:29 | 39.88693 | -85.20100 | 25329 ft | 477 kts | 84° |
| 2026-05-04 19:30 | 39.88918 | -85.15850 | 25695 ft | 479 kts | 85° |
| 2026-05-04 19:30 | 39.89115 | -85.11449 | 26069 ft | 482 kts | 86° |
| 2026-05-04 19:30 | 39.89308 | -85.07078 | 26401 ft | 485 kts | 86° |
| 2026-05-04 19:30 | 39.89513 | -85.02680 | 26756 ft | 488 kts | 85° |
| 2026-05-04 19:31 | 39.89732 | -84.98270 | 27096 ft | 490 kts | 85° |
| 2026-05-04 19:31 | 39.89961 | -84.93839 | 27436 ft | 491 kts | 85° |
| 2026-05-04 19:31 | 39.90197 | -84.89385 | 27717 ft | 494 kts | 85° |
| 2026-05-04 19:31 | 39.90433 | -84.84923 | 27994 ft | 497 kts | 85° |
| 2026-05-04 19:32 | 39.90670 | -84.80423 | 28305 ft | 500 kts | 85° |
| 2026-05-04 19:32 | 39.90904 | -84.75960 | 28614 ft | 501 kts | 85° |
| 2026-05-04 19:32 | 39.91139 | -84.71408 | 28913 ft | 504 kts | 85° |
| 2026-05-04 19:32 | 39.91373 | -84.66838 | 29198 ft | 506 kts | 85° |
| 2026-05-04 19:33 | 39.91605 | -84.62263 | 29472 ft | 508 kts | 85° |
| 2026-05-04 19:33 | 39.91836 | -84.57664 | 29769 ft | 509 kts | 85° |
| 2026-05-04 19:33 | 39.92065 | -84.53067 | 30158 ft | 507 kts | 85° |
| 2026-05-04 19:33 | 39.92290 | -84.48493 | 30637 ft | 503 kts | 85° |
| 2026-05-04 19:34 | 39.92512 | -84.43962 | 31109 ft | 499 kts | 85° |
| 2026-05-04 19:34 | 39.92731 | -84.39461 | 31512 ft | 497 kts | 84° |
| 2026-05-04 19:34 | 39.92948 | -84.34971 | 31864 ft | 496 kts | 84° |
| 2026-05-04 19:34 | 39.93164 | -84.30487 | 32234 ft | 494 kts | 85° |
| 2026-05-04 19:35 | 39.93376 | -84.26035 | 32636 ft | 492 kts | 84° |
| 2026-05-04 19:35 | 39.93660 | -84.21600 | 32997 ft | 489 kts | 80° |
| 2026-05-04 19:35 | 39.94182 | -84.17228 | 33331 ft | 487 kts | 77° |
| 2026-05-04 19:35 | 39.94794 | -84.12897 | 33662 ft | 486 kts | 77° |
| 2026-05-04 19:36 | 39.95437 | -84.08578 | 33952 ft | 485 kts | 76° |
| 2026-05-04 19:36 | 39.96077 | -84.04268 | 34208 ft | 484 kts | 77° |
| 2026-05-04 19:36 | 39.96702 | -83.99960 | 34441 ft | 484 kts | 77° |
| 2026-05-04 19:36 | 39.97311 | -83.95646 | 34672 ft | 484 kts | 77° |
| 2026-05-04 19:37 | 39.97908 | -83.91330 | 34900 ft | 484 kts | 77° |
| 2026-05-04 19:37 | 39.98494 | -83.87021 | 35141 ft | 483 kts | 78° |
| 2026-05-04 19:37 | 39.99076 | -83.82707 | 35362 ft | 483 kts | 78° |
| 2026-05-04 19:37 | 39.99655 | -83.78393 | 35599 ft | 482 kts | 78° |
| 2026-05-04 19:38 | 40.00232 | -83.74089 | 35829 ft | 482 kts | 78° |
| 2026-05-04 19:38 | 40.00807 | -83.69785 | 36066 ft | 481 kts | 78° |
| 2026-05-04 19:38 | 40.01381 | -83.65484 | 36319 ft | 480 kts | 78° |
| 2026-05-04 19:38 | 40.01952 | -83.61193 | 36520 ft | 481 kts | 78° |
| 2026-05-04 19:39 | 40.02523 | -83.56896 | 36713 ft | 481 kts | 78° |
| 2026-05-04 19:39 | 40.03092 | -83.52603 | 36862 ft | 480 kts | 78° |
| 2026-05-04 19:39 | 40.03661 | -83.48297 | 36856 ft | 482 kts | 78° |
| 2026-05-04 19:40 | 40.04794 | -83.39685 | 36866 ft | 481 kts | 78° |
| 2026-05-04 19:40 | 40.05916 | -83.31096 | 36856 ft | 479 kts | 78° |
| 2026-05-04 19:41 | 40.06842 | -83.23976 | 36828 ft | 478 kts | 78° |
| 2026-05-04 19:41 | 40.08124 | -83.14047 | 36835 ft | 477 kts | 78° |
| 2026-05-04 19:42 | 40.09220 | -83.05512 | 36835 ft | 476 kts | 78° |
| 2026-05-04 19:42 | 40.10133 | -82.98365 | 36845 ft | 476 kts | 78° |
| 2026-05-04 19:43 | 40.11215 | -82.89840 | 36833 ft | 476 kts | 78° |
| 2026-05-04 19:43 | 40.12293 | -82.81301 | 36833 ft | 476 kts | 78° |
| 2026-05-04 19:44 | 40.13364 | -82.72764 | 36832 ft | 476 kts | 78° |
| 2026-05-04 19:44 | 40.14390 | -82.64207 | 36830 ft | 478 kts | 83° |
| 2026-05-04 19:45 | 40.14000 | -82.55584 | 36846 ft | 482 kts | 101° |
| 2026-05-04 19:45 | 40.11850 | -82.47280 | 36848 ft | 484 kts | 111° |
| 2026-05-04 19:46 | 40.09329 | -82.39121 | 36843 ft | 485 kts | 111° |
| 2026-05-04 19:46 | 40.06824 | -82.30881 | 36837 ft | 485 kts | 111° |
| 2026-05-04 19:47 | 40.04389 | -82.22721 | 36841 ft | 486 kts | 111° |
| 2026-05-04 19:47 | 40.01937 | -82.14496 | 36841 ft | 487 kts | 111° |
| 2026-05-04 19:48 | 39.99473 | -82.06264 | 36851 ft | 487 kts | 111° |
| 2026-05-04 19:48 | 39.97000 | -81.98035 | 36851 ft | 488 kts | 111° |
| 2026-05-04 19:49 | 39.94518 | -81.89800 | 36851 ft | 488 kts | 111° |
| 2026-05-04 19:49 | 39.92012 | -81.81572 | 36851 ft | 488 kts | 111° |
| 2026-05-04 19:50 | 39.89503 | -81.73375 | 36853 ft | 487 kts | 111° |
| 2026-05-04 19:50 | 39.86993 | -81.65182 | 36853 ft | 487 kts | 111° |
| 2026-05-04 19:51 | 39.84488 | -81.57012 | 36851 ft | 486 kts | 111° |
| 2026-05-04 19:51 | 39.81985 | -81.48849 | 36857 ft | 485 kts | 111° |
| 2026-05-04 19:52 | 39.79481 | -81.40698 | 36861 ft | 485 kts | 111° |
| 2026-05-04 19:52 | 39.76970 | -81.32555 | 36871 ft | 485 kts | 111° |
| 2026-05-04 19:53 | 39.74459 | -81.24437 | 36875 ft | 484 kts | 111° |
| 2026-05-04 19:53 | 39.71939 | -81.16315 | 36876 ft | 484 kts | 111° |
| 2026-05-04 19:54 | 39.69434 | -81.08264 | 36886 ft | 484 kts | 111° |
| 2026-05-04 19:54 | 39.66905 | -81.00159 | 36880 ft | 485 kts | 111° |
| 2026-05-04 19:55 | 39.64366 | -80.92044 | 36878 ft | 486 kts | 111° |
| 2026-05-04 19:55 | 39.61818 | -80.83925 | 36875 ft | 486 kts | 111° |
| 2026-05-04 19:56 | 39.59261 | -80.75801 | 36881 ft | 486 kts | 111° |
| 2026-05-04 19:56 | 39.56699 | -80.67683 | 36881 ft | 487 kts | 112° |
| 2026-05-04 19:57 | 39.54130 | -80.59565 | 36882 ft | 487 kts | 112° |
| 2026-05-04 19:57 | 39.51555 | -80.51446 | 36887 ft | 487 kts | 112° |
| 2026-05-04 19:58 | 39.48976 | -80.43332 | 36894 ft | 487 kts | 112° |
| 2026-05-04 19:58 | 39.46394 | -80.35233 | 36903 ft | 487 kts | 112° |
| 2026-05-04 19:59 | 39.43800 | -80.27121 | 36910 ft | 487 kts | 112° |
| 2026-05-04 19:59 | 39.41204 | -80.19026 | 36671 ft | 491 kts | 112° |
| 2026-05-04 19:59 | 39.39890 | -80.14936 | 36134 ft | 492 kts | 112° |
| 2026-05-04 20:00 | 39.38577 | -80.10856 | 35538 ft | 491 kts | 112° |
| 2026-05-04 20:00 | 39.37263 | -80.06779 | 34894 ft | 491 kts | 112° |
| 2026-05-04 20:00 | 39.35948 | -80.02704 | 34247 ft | 492 kts | 113° |
| 2026-05-04 20:00 | 39.34626 | -79.98615 | 33502 ft | 494 kts | 113° |
| 2026-05-04 20:01 | 39.33301 | -79.94520 | 32745 ft | 495 kts | 113° |
| 2026-05-04 20:01 | 39.31972 | -79.90420 | 32014 ft | 495 kts | 113° |
| 2026-05-04 20:01 | 39.30641 | -79.86319 | 31305 ft | 496 kts | 114° |
| 2026-05-04 20:01 | 39.29399 | -79.82184 | 30836 ft | 492 kts | 106° |
| 2026-05-04 20:02 | 39.28852 | -79.77873 | 30451 ft | 484 kts | 94° |
| 2026-05-04 20:02 | 39.28575 | -79.73551 | 30044 ft | 486 kts | 94° |
| 2026-05-04 20:02 | 39.28301 | -79.69165 | 29572 ft | 492 kts | 94° |
| 2026-05-04 20:02 | 39.27991 | -79.64769 | 29104 ft | 492 kts | 95° |
| 2026-05-04 20:03 | 39.27648 | -79.60399 | 28699 ft | 486 kts | 95° |
| 2026-05-04 20:03 | 39.27296 | -79.56093 | 28263 ft | 481 kts | 96° |
| 2026-05-04 20:03 | 39.26943 | -79.51827 | 27869 ft | 476 kts | 95° |
| 2026-05-04 20:03 | 39.26603 | -79.47657 | 27456 ft | 472 kts | 95° |
| 2026-05-04 20:04 | 39.26257 | -79.43408 | 27033 ft | 468 kts | 95° |
| 2026-05-04 20:04 | 39.25923 | -79.39303 | 26641 ft | 464 kts | 96° |
| 2026-05-04 20:04 | 39.25586 | -79.35186 | 26249 ft | 460 kts | 96° |
| 2026-05-04 20:04 | 39.25250 | -79.31090 | 25853 ft | 457 kts | 96° |
| 2026-05-04 20:05 | 39.24914 | -79.27028 | 25455 ft | 453 kts | 96° |
| 2026-05-04 20:05 | 39.24580 | -79.23014 | 25076 ft | 447 kts | 96° |
| 2026-05-04 20:05 | 39.24246 | -79.19049 | 24698 ft | 441 kts | 96° |
| 2026-05-04 20:05 | 39.23914 | -79.15145 | 24322 ft | 436 kts | 96° |
| 2026-05-04 20:06 | 39.23583 | -79.11280 | 23955 ft | 430 kts | 96° |
| 2026-05-04 20:06 | 39.23257 | -79.07467 | 23588 ft | 426 kts | 96° |
| 2026-05-04 20:06 | 39.22933 | -79.03698 | 23171 ft | 421 kts | 96° |
| 2026-05-04 20:06 | 39.22612 | -78.99966 | 22788 ft | 416 kts | 96° |
| 2026-05-04 20:07 | 39.22294 | -78.96278 | 22392 ft | 412 kts | 96° |
| 2026-05-04 20:07 | 39.21959 | -78.92631 | 22056 ft | 407 kts | 97° |
| 2026-05-04 20:07 | 39.21606 | -78.89005 | 21702 ft | 409 kts | 97° |
| 2026-05-04 20:07 | 39.21247 | -78.85355 | 21356 ft | 412 kts | 97° |
| 2026-05-04 20:08 | 39.20887 | -78.81681 | 20995 ft | 414 kts | 97° |
| 2026-05-04 20:08 | 39.20530 | -78.78016 | 20632 ft | 411 kts | 97° |
| 2026-05-04 20:08 | 39.20175 | -78.74377 | 20283 ft | 408 kts | 97° |
| 2026-05-04 20:08 | 39.19822 | -78.70760 | 19966 ft | 404 kts | 97° |
| 2026-05-04 20:09 | 39.19469 | -78.67174 | 19640 ft | 402 kts | 98° |
| 2026-05-04 20:09 | 39.19116 | -78.63604 | 19298 ft | 401 kts | 97° |
| 2026-05-04 20:09 | 39.18764 | -78.60040 | 18966 ft | 400 kts | 98° |
| 2026-05-04 20:09 | 39.18412 | -78.56490 | 18617 ft | 399 kts | 98° |
| 2026-05-04 20:10 | 39.18060 | -78.52942 | 18281 ft | 398 kts | 98° |
| 2026-05-04 20:10 | 39.17708 | -78.49420 | 17915 ft | 396 kts | 98° |
| 2026-05-04 20:10 | 39.17358 | -78.45908 | 17531 ft | 394 kts | 98° |
| 2026-05-04 20:10 | 39.17008 | -78.42416 | 17183 ft | 393 kts | 98° |
| 2026-05-04 20:11 | 39.16658 | -78.38933 | 16815 ft | 390 kts | 98° |
| 2026-05-04 20:11 | 39.16247 | -78.35498 | 16524 ft | 386 kts | 103° |
| 2026-05-04 20:11 | 39.15523 | -78.32174 | 16186 ft | 384 kts | 109° |
| 2026-05-04 20:11 | 39.14661 | -78.28918 | 15853 ft | 383 kts | 110° |
| 2026-05-04 20:12 | 39.13783 | -78.25683 | 15512 ft | 382 kts | 110° |
| 2026-05-04 20:12 | 39.12928 | -78.22444 | 15189 ft | 381 kts | 110° |
| 2026-05-04 20:12 | 39.12102 | -78.19208 | 14856 ft | 380 kts | 109° |
| 2026-05-04 20:12 | 39.11292 | -78.15973 | 14538 ft | 379 kts | 109° |
| 2026-05-04 20:13 | 39.10488 | -78.12744 | 14222 ft | 379 kts | 109° |
| 2026-05-04 20:13 | 39.09680 | -78.09519 | 13889 ft | 378 kts | 109° |
| 2026-05-04 20:13 | 39.08864 | -78.06315 | 13560 ft | 376 kts | 109° |
| 2026-05-04 20:13 | 39.08058 | -78.03163 | 13210 ft | 375 kts | 110° |
| 2026-05-04 20:14 | 39.07235 | -77.99952 | 12855 ft | 370 kts | 110° |
| 2026-05-04 20:14 | 39.06432 | -77.96820 | 12545 ft | 368 kts | 109° |
| 2026-05-04 20:14 | 39.05633 | -77.93697 | 12221 ft | 366 kts | 109° |
| 2026-05-04 20:14 | 39.04853 | -77.90656 | 11914 ft | 361 kts | 109° |
| 2026-05-04 20:15 | 39.04071 | -77.87611 | 11609 ft | 356 kts | 110° |
| 2026-05-04 20:15 | 39.03306 | -77.84637 | 11321 ft | 345 kts | 110° |
| 2026-05-04 20:15 | 39.02566 | -77.81758 | 11029 ft | 334 kts | 110° |
| 2026-05-04 20:15 | 39.01848 | -77.78971 | 10750 ft | 323 kts | 110° |
| 2026-05-04 20:16 | 39.01189 | -77.76418 | 10502 ft | 318 kts | 110° |
| 2026-05-04 20:16 | 39.00492 | -77.73726 | 10236 ft | 317 kts | 110° |
| 2026-05-04 20:16 | 38.99799 | -77.71048 | 9961 ft | 315 kts | 110° |
| 2026-05-04 20:16 | 38.99118 | -77.68417 | 9899 ft | 305 kts | 110° |
| 2026-05-04 20:17 | 38.98440 | -77.65807 | 9438 ft | 309 kts | 110° |
| 2026-05-04 20:17 | 38.97723 | -77.63217 | 9168 ft | 306 kts | 112° |
| 2026-05-04 20:17 | 38.96963 | -77.60672 | 8868 ft | 305 kts | 113° |
| 2026-05-04 20:17 | 38.96204 | -77.58139 | 8605 ft | 302 kts | 113° |
| 2026-05-04 20:18 | 38.95454 | -77.55630 | 8325 ft | 301 kts | 113° |
| 2026-05-04 20:18 | 38.94765 | -77.53103 | 8064 ft | 299 kts | 103° |
| 2026-05-04 20:18 | 38.94767 | -77.50483 | 7972 ft | 293 kts | 77° |
| 2026-05-04 20:18 | 38.95448 | -77.48053 | 7971 ft | 286 kts | 66° |
| 2026-05-04 20:19 | 38.96232 | -77.45757 | 7953 ft | 275 kts | 65° |
| 2026-05-04 20:19 | 38.96990 | -77.43562 | 7947 ft | 264 kts | 65° |
| 2026-05-04 20:19 | 38.97713 | -77.41447 | 7944 ft | 253 kts | 66° |
| 2026-05-04 20:19 | 38.98406 | -77.39389 | 7899 ft | 251 kts | 65° |
| 2026-05-04 20:20 | 38.99095 | -77.37333 | 7674 ft | 252 kts | 66° |
| 2026-05-04 20:20 | 38.99795 | -77.35242 | 7369 ft | 256 kts | 66° |
| 2026-05-04 20:20 | 39.00493 | -77.33148 | 7206 ft | 253 kts | 66° |
| 2026-05-04 20:20 | 39.01185 | -77.31081 | 6932 ft | 250 kts | 66° |
| 2026-05-04 20:21 | 39.01876 | -77.29025 | 6577 ft | 251 kts | 67° |
| 2026-05-04 20:21 | 39.02568 | -77.26966 | 6258 ft | 250 kts | 66° |
| 2026-05-04 20:21 | 39.02432 | -77.22812 | 5611 ft | 235 kts | 126° |
| 2026-05-04 20:22 | 39.01380 | -77.21231 | 5087 ft | 236 kts | 142° |
| 2026-05-04 20:22 | 39.00099 | -77.19832 | 4508 ft | 244 kts | 144° |
| 2026-05-04 20:22 | 38.98789 | -77.18364 | 3735 ft | 259 kts | 138° |
| 2026-05-04 20:22 | 38.97583 | -77.16568 | 2954 ft | 272 kts | 130° |
| 2026-05-04 20:23 | 38.96411 | -77.14688 | 2526 ft | 265 kts | 136° |
| 2026-05-04 20:23 | 38.95092 | -77.13265 | 2490 ft | 235 kts | 148° |
| 2026-05-04 20:23 | 38.93792 | -77.12151 | 2124 ft | 215 kts | 152° |
| 2026-05-04 20:23 | 38.92590 | -77.11193 | 1897 ft | 194 kts | 150° |
| 2026-05-04 20:24 | 38.91522 | -77.10272 | 1718 ft | 175 kts | 147° |
| 2026-05-04 20:24 | 38.90741 | -77.09167 | 1541 ft | 159 kts | 125° |
| 2026-05-04 20:24 | 38.90335 | -77.07837 | 1056 ft | 166 kts | 109° |
| 2026-05-04 20:24 | 38.89926 | -77.06576 | 842 ft | 140 kts | 143° |
| 2026-05-04 20:25 | 38.89180 | -77.05879 | 768 ft | 132 kts | 154° |
| 2026-05-04 20:25 | 38.88396 | -77.05130 | 748 ft | 155 kts | 143° |
| 2026-05-04 20:25 | 38.87604 | -77.04170 | 514 ft | 153 kts | 149° |
| 2026-05-04 20:25 | 38.86683 | -77.03910 | 250 ft | 134 kts | 180° |
| 2026-05-04 20:26 | 38.85791 | -77.03837 | 35 ft | 120 kts | 179° |
| 2026-05-04 20:26 | 38.85178 | -77.03777 | 19 ft | 38 kts | 176° |
| 2026-05-04 20:26 | 38.85021 | -77.03763 | 19 ft | 23 kts | 177° |
| 2026-05-04 20:26 | 38.84893 | -77.03796 | 17 ft | 15 kts | 227° |
| 2026-05-04 20:27 | 38.84884 | -77.03862 | 17 ft | 0 kts | 290° |
| 2026-05-04 20:27 | 38.84884 | -77.03863 | 17 ft | 0 kts | 290° |
| 2026-05-04 20:28 | 38.84898 | -77.03883 | 17 ft | 7 kts | 324° |
| 2026-05-04 20:28 | 38.84952 | -77.03896 | 16 ft | 9 kts | 355° |
| 2026-05-04 20:28 | 38.85017 | -77.03903 | 17 ft | 9 kts | 355° |
| 2026-05-04 20:28 | 38.85081 | -77.03910 | 18 ft | 9 kts | 355° |
| 2026-05-04 20:29 | 38.85144 | -77.03916 | 18 ft | 9 kts | 356° |
| 2026-05-04 20:29 | 38.85189 | -77.03921 | 18 ft | 11 kts | 355° |
| 2026-05-04 20:29 | 38.85273 | -77.03929 | 18 ft | 13 kts | 356° |
| 2026-05-04 20:29 | 38.85359 | -77.03937 | 19 ft | 12 kts | 355° |
| 2026-05-04 20:30 | 38.85443 | -77.03946 | 21 ft | 12 kts | 356° |
| 2026-05-04 20:30 | 38.85523 | -77.03954 | 22 ft | 10 kts | 355° |
| 2026-05-04 20:30 | 38.85557 | -77.03997 | 22 ft | 8 kts | 265° |
| 2026-05-04 20:30 | 38.85544 | -77.04065 | 22 ft | 8 kts | 253° |
| 2026-05-04 20:31 | 38.85529 | -77.04128 | 23 ft | 3 kts | 261° |
| 2026-05-04 20:31 | 38.85543 | -77.04152 | 27 ft | 4 kts | 328° |
| 2026-05-04 20:31 | 38.85565 | -77.04167 | 24 ft | 4 kts | 332° |
| 2026-05-04 20:31 | 38.85578 | -77.04176 | 26 ft | 0 kts | 331° |